sensor_id;sensor_type;location;lat;lon;timestamp;P1;durP1;ratioP1;P2;durP2;ratioP2
29026;SDS011;16120;48.608;9.092;2022-07-05T00:03:18;68.97;;;2.17;;
29026;SDS011;16120;48.608;9.092;2022-07-05T00:07:13;68.90;;;2.10;;
29026;SDS011;16120;48.608;9.092;2022-07-05T00:11:10;69.17;;;2.10;;
29026;SDS011;16120;48.608;9.092;2022-07-05T00:15:06;68.50;;;2.10;;
29026;SDS011;16120;48.608;9.092;2022-07-05T00:19:01;68.77;;;2.10;;
29026;SDS011;16120;48.608;9.092;2022-07-05T00:22:56;69.43;;;2.20;;
29026;SDS011;16120;48.608;9.092;2022-07-05T00:26:53;69.17;;;2.00;;
29026;SDS011;16120;48.608;9.092;2022-07-05T00:30:48;69.13;;;1.93;;
29026;SDS011;16120;48.608;9.092;2022-07-05T00:34:43;70.05;;;2.10;;
29026;SDS011;16120;48.608;9.092;2022-07-05T00:38:38;68.97;;;2.00;;
29026;SDS011;16120;48.608;9.092;2022-07-05T00:42:35;68.53;;;2.13;;
29026;SDS011;16120;48.608;9.092;2022-07-05T00:46:30;69.13;;;2.00;;
29026;SDS011;16120;48.608;9.092;2022-07-05T00:50:25;68.87;;;2.10;;
29026;SDS011;16120;48.608;9.092;2022-07-05T00:54:21;68.17;;;1.90;;
29026;SDS011;16120;48.608;9.092;2022-07-05T00:58:17;69.27;;;2.20;;
29026;SDS011;16120;48.608;9.092;2022-07-05T01:02:12;70.17;;;2.40;;
29026;SDS011;16120;48.608;9.092;2022-07-05T01:06:09;69.97;;;2.30;;
29026;SDS011;16120;48.608;9.092;2022-07-05T01:10:04;69.00;;;2.10;;
29026;SDS011;16120;48.608;9.092;2022-07-05T01:14:01;69.40;;;2.30;;
29026;SDS011;16120;48.608;9.092;2022-07-05T01:17:57;69.20;;;2.30;;
29026;SDS011;16120;48.608;9.092;2022-07-05T01:21:52;69.20;;;2.10;;
29026;SDS011;16120;48.608;9.092;2022-07-05T01:25:49;69.57;;;2.10;;
29026;SDS011;16120;48.608;9.092;2022-07-05T01:29:44;68.90;;;2.20;;
29026;SDS011;16120;48.608;9.092;2022-07-05T01:33:40;69.00;;;2.20;;
29026;SDS011;16120;48.608;9.092;2022-07-05T01:37:35;71.18;;;2.25;;
29026;SDS011;16120;48.608;9.092;2022-07-05T01:41:31;69.83;;;2.30;;
29026;SDS011;16120;48.608;9.092;2022-07-05T01:45:27;69.40;;;2.30;;
29026;SDS011;16120;48.608;9.092;2022-07-05T01:49:22;69.40;;;2.17;;
29026;SDS011;16120;48.608;9.092;2022-07-05T01:53:20;70.17;;;2.43;;
29026;SDS011;16120;48.608;9.092;2022-07-05T01:57:17;70.33;;;2.40;;
29026;SDS011;16120;48.608;9.092;2022-07-05T02:01:13;69.60;;;2.30;;
29026;SDS011;16120;48.608;9.092;2022-07-05T02:05:08;69.77;;;2.40;;
29026;SDS011;16120;48.608;9.092;2022-07-05T02:09:04;69.47;;;2.40;;
29026;SDS011;16120;48.608;9.092;2022-07-05T02:13:01;69.97;;;2.50;;
29026;SDS011;16120;48.608;9.092;2022-07-05T02:16:56;68.40;;;2.10;;
29026;SDS011;16120;48.608;9.092;2022-07-05T02:20:51;69.20;;;2.40;;
29026;SDS011;16120;48.608;9.092;2022-07-05T02:24:47;69.27;;;2.27;;
29026;SDS011;16120;48.608;9.092;2022-07-05T02:28:43;71.77;;;2.40;;
29026;SDS011;16120;48.608;9.092;2022-07-05T02:32:38;69.10;;;2.50;;
29026;SDS011;16120;48.608;9.092;2022-07-05T02:36:34;69.50;;;2.30;;
29026;SDS011;16120;48.608;9.092;2022-07-05T02:40:29;68.47;;;2.50;;
29026;SDS011;16120;48.608;9.092;2022-07-05T02:44:26;69.87;;;2.33;;
29026;SDS011;16120;48.608;9.092;2022-07-05T02:48:21;68.07;;;2.30;;
29026;SDS011;16120;48.608;9.092;2022-07-05T02:52:16;69.77;;;2.33;;
29026;SDS011;16120;48.608;9.092;2022-07-05T02:56:11;69.83;;;2.40;;
29026;SDS011;16120;48.608;9.092;2022-07-05T03:00:08;69.10;;;2.50;;
29026;SDS011;16120;48.608;9.092;2022-07-05T03:04:04;70.70;;;2.40;;
29026;SDS011;16120;48.608;9.092;2022-07-05T03:07:59;69.77;;;2.30;;
29026;SDS011;16120;48.608;9.092;2022-07-05T03:11:54;69.67;;;2.30;;
29026;SDS011;16120;48.608;9.092;2022-07-05T03:15:51;70.57;;;2.37;;
29026;SDS011;16120;48.608;9.092;2022-07-05T03:19:46;69.40;;;2.30;;
29026;SDS011;16120;48.608;9.092;2022-07-05T03:23:42;70.70;;;2.37;;
29026;SDS011;16120;48.608;9.092;2022-07-05T03:27:37;69.80;;;2.40;;
29026;SDS011;16120;48.608;9.092;2022-07-05T03:31:34;69.80;;;2.30;;
29026;SDS011;16120;48.608;9.092;2022-07-05T03:35:29;71.93;;;2.63;;
29026;SDS011;16120;48.608;9.092;2022-07-05T03:39:24;70.17;;;2.50;;
29026;SDS011;16120;48.608;9.092;2022-07-05T03:43:19;70.03;;;2.50;;
29026;SDS011;16120;48.608;9.092;2022-07-05T03:47:16;69.87;;;2.43;;
29026;SDS011;16120;48.608;9.092;2022-07-05T03:51:11;69.80;;;2.50;;
29026;SDS011;16120;48.608;9.092;2022-07-05T03:55:07;69.80;;;2.40;;
29026;SDS011;16120;48.608;9.092;2022-07-05T03:59:02;68.67;;;2.47;;
29026;SDS011;16120;48.608;9.092;2022-07-05T04:02:59;70.80;;;2.60;;
29026;SDS011;16120;48.608;9.092;2022-07-05T04:06:54;70.10;;;2.50;;
29026;SDS011;16120;48.608;9.092;2022-07-05T04:10:49;69.77;;;2.40;;
29026;SDS011;16120;48.608;9.092;2022-07-05T04:14:44;69.90;;;2.57;;
29026;SDS011;16120;48.608;9.092;2022-07-05T04:18:41;70.43;;;2.60;;
29026;SDS011;16120;48.608;9.092;2022-07-05T04:22:36;70.23;;;2.60;;
29026;SDS011;16120;48.608;9.092;2022-07-05T04:26:31;70.88;;;2.60;;
29026;SDS011;16120;48.608;9.092;2022-07-05T04:30:26;70.78;;;2.50;;
29026;SDS011;16120;48.608;9.092;2022-07-05T04:34:23;70.63;;;2.70;;
29026;SDS011;16120;48.608;9.092;2022-07-05T04:38:19;70.23;;;2.60;;
29026;SDS011;16120;48.608;9.092;2022-07-05T04:42:14;70.27;;;2.50;;
29026;SDS011;16120;48.608;9.092;2022-07-05T04:46:09;71.67;;;2.77;;
29026;SDS011;16120;48.608;9.092;2022-07-05T04:50:06;69.97;;;2.43;;
29026;SDS011;16120;48.608;9.092;2022-07-05T04:54:01;71.47;;;2.50;;
29026;SDS011;16120;48.608;9.092;2022-07-05T04:57:57;70.57;;;2.50;;
29026;SDS011;16120;48.608;9.092;2022-07-05T05:01:52;70.10;;;2.63;;
29026;SDS011;16120;48.608;9.092;2022-07-05T05:05:49;69.23;;;2.37;;
29026;SDS011;16120;48.608;9.092;2022-07-05T05:09:47;69.03;;;2.27;;
29026;SDS011;16120;48.608;9.092;2022-07-05T05:13:42;69.40;;;2.57;;
29026;SDS011;16120;48.608;9.092;2022-07-05T05:17:38;68.43;;;2.40;;
29026;SDS011;16120;48.608;9.092;2022-07-05T05:21:35;70.07;;;2.63;;
29026;SDS011;16120;48.608;9.092;2022-07-05T05:25:30;71.97;;;2.40;;
29026;SDS011;16120;48.608;9.092;2022-07-05T05:29:25;71.07;;;2.57;;
29026;SDS011;16120;48.608;9.092;2022-07-05T05:33:21;69.00;;;2.50;;
29026;SDS011;16120;48.608;9.092;2022-07-05T05:37:17;69.80;;;2.30;;
29026;SDS011;16120;48.608;9.092;2022-07-05T05:41:12;68.47;;;2.40;;
29026;SDS011;16120;48.608;9.092;2022-07-05T05:45:08;70.20;;;2.40;;
29026;SDS011;16120;48.608;9.092;2022-07-05T05:49:03;69.07;;;2.10;;
29026;SDS011;16120;48.608;9.092;2022-07-05T05:53:01;68.70;;;2.13;;
29026;SDS011;16120;48.608;9.092;2022-07-05T05:56:56;69.30;;;2.30;;
29026;SDS011;16120;48.608;9.092;2022-07-05T06:00:51;68.87;;;2.10;;
29026;SDS011;16120;48.608;9.092;2022-07-05T06:04:47;68.20;;;1.93;;
29026;SDS011;16120;48.608;9.092;2022-07-05T06:08:44;67.87;;;2.10;;
29026;SDS011;16120;48.608;9.092;2022-07-05T06:12:39;67.97;;;2.10;;
29026;SDS011;16120;48.608;9.092;2022-07-05T06:16:34;67.33;;;1.93;;
29026;SDS011;16120;48.608;9.092;2022-07-05T06:20:30;67.80;;;2.00;;
29026;SDS011;16120;48.608;9.092;2022-07-05T06:24:27;68.10;;;1.90;;
29026;SDS011;16120;48.608;9.092;2022-07-05T06:28:22;66.37;;;1.60;;
29026;SDS011;16120;48.608;9.092;2022-07-05T06:32:17;67.17;;;1.60;;
29026;SDS011;16120;48.608;9.092;2022-07-05T06:36:13;67.10;;;1.70;;
29026;SDS011;16120;48.608;9.092;2022-07-05T06:40:10;66.37;;;1.80;;
29026;SDS011;16120;48.608;9.092;2022-07-05T06:44:05;66.10;;;1.80;;
29026;SDS011;16120;48.608;9.092;2022-07-05T06:48:01;66.03;;;1.70;;
29026;SDS011;16120;48.608;9.092;2022-07-05T06:51:56;65.97;;;1.53;;
29026;SDS011;16120;48.608;9.092;2022-07-05T06:55:53;65.80;;;1.60;;
29026;SDS011;16120;48.608;9.092;2022-07-05T06:59:48;65.93;;;1.53;;
29026;SDS011;16120;48.608;9.092;2022-07-05T07:03:43;67.00;;;1.60;;
29026;SDS011;16120;48.608;9.092;2022-07-05T07:07:39;65.77;;;1.50;;
29026;SDS011;16120;48.608;9.092;2022-07-05T07:11:35;65.87;;;1.50;;
29026;SDS011;16120;48.608;9.092;2022-07-05T07:15:31;65.57;;;1.60;;
29026;SDS011;16120;48.608;9.092;2022-07-05T07:19:26;67.07;;;1.50;;
29026;SDS011;16120;48.608;9.092;2022-07-05T07:23:21;65.03;;;1.50;;
29026;SDS011;16120;48.608;9.092;2022-07-05T07:27:18;65.70;;;1.57;;
29026;SDS011;16120;48.608;9.092;2022-07-05T07:31:13;65.07;;;1.40;;
29026;SDS011;16120;48.608;9.092;2022-07-05T07:35:08;65.47;;;1.53;;
29026;SDS011;16120;48.608;9.092;2022-07-05T07:39:04;65.50;;;1.50;;
29026;SDS011;16120;48.608;9.092;2022-07-05T07:43:00;65.90;;;1.43;;
29026;SDS011;16120;48.608;9.092;2022-07-05T07:46:55;66.57;;;1.40;;
29026;SDS011;16120;48.608;9.092;2022-07-05T07:50:51;66.17;;;1.50;;
29026;SDS011;16120;48.608;9.092;2022-07-05T07:54:46;69.63;;;1.50;;
29026;SDS011;16120;48.608;9.092;2022-07-05T07:58:42;65.80;;;1.50;;
29026;SDS011;16120;48.608;9.092;2022-07-05T08:02:38;66.13;;;1.60;;
29026;SDS011;16120;48.608;9.092;2022-07-05T08:06:33;66.37;;;1.60;;
29026;SDS011;16120;48.608;9.092;2022-07-05T08:10:28;66.20;;;1.50;;
29026;SDS011;16120;48.608;9.092;2022-07-05T08:14:25;65.47;;;1.30;;
29026;SDS011;16120;48.608;9.092;2022-07-05T08:18:20;65.97;;;1.40;;
29026;SDS011;16120;48.608;9.092;2022-07-05T08:22:15;65.80;;;1.40;;
29026;SDS011;16120;48.608;9.092;2022-07-05T08:26:10;66.10;;;1.30;;
29026;SDS011;16120;48.608;9.092;2022-07-05T08:30:08;65.67;;;1.40;;
29026;SDS011;16120;48.608;9.092;2022-07-05T08:34:03;64.77;;;1.30;;
29026;SDS011;16120;48.608;9.092;2022-07-05T08:37:59;65.70;;;1.50;;
29026;SDS011;16120;48.608;9.092;2022-07-05T08:41:54;66.37;;;1.50;;
29026;SDS011;16120;48.608;9.092;2022-07-05T08:45:51;65.57;;;1.30;;
29026;SDS011;16120;48.608;9.092;2022-07-05T08:49:47;64.97;;;1.20;;
29026;SDS011;16120;48.608;9.092;2022-07-05T08:53:43;65.38;;;1.33;;
29026;SDS011;16120;48.608;9.092;2022-07-05T08:57:39;65.20;;;1.30;;
29026;SDS011;16120;48.608;9.092;2022-07-05T09:01:35;64.27;;;1.40;;
29026;SDS011;16120;48.608;9.092;2022-07-05T09:05:31;64.40;;;1.17;;
29026;SDS011;16120;48.608;9.092;2022-07-05T09:09:29;64.50;;;1.30;;
29026;SDS011;16120;48.608;9.092;2022-07-05T09:13:27;64.53;;;1.30;;
29026;SDS011;16120;48.608;9.092;2022-07-05T09:17:23;65.27;;;1.30;;
29026;SDS011;16120;48.608;9.092;2022-07-05T09:21:19;64.97;;;1.30;;
29026;SDS011;16120;48.608;9.092;2022-07-05T09:25:19;64.67;;;1.30;;
29026;SDS011;16120;48.608;9.092;2022-07-05T09:29:15;65.70;;;1.30;;
29026;SDS011;16120;48.608;9.092;2022-07-05T09:33:13;64.57;;;1.20;;
29026;SDS011;16120;48.608;9.092;2022-07-05T09:37:08;65.80;;;1.20;;
29026;SDS011;16120;48.608;9.092;2022-07-05T09:41:03;65.10;;;1.20;;
29026;SDS011;16120;48.608;9.092;2022-07-05T09:45:06;59.73;;;18.60;;
29026;SDS011;16120;48.608;9.092;2022-07-05T09:49:03;65.37;;;1.30;;
29026;SDS011;16120;48.608;9.092;2022-07-05T09:52:58;64.73;;;1.13;;
29026;SDS011;16120;48.608;9.092;2022-07-05T09:56:53;64.97;;;1.10;;
29026;SDS011;16120;48.608;9.092;2022-07-05T10:00:48;64.50;;;1.20;;
29026;SDS011;16120;48.608;9.092;2022-07-05T10:04:45;65.50;;;1.30;;
29026;SDS011;16120;48.608;9.092;2022-07-05T10:08:40;64.17;;;1.10;;
29026;SDS011;16120;48.608;9.092;2022-07-05T10:12:36;64.60;;;1.30;;
29026;SDS011;16120;48.608;9.092;2022-07-05T10:16:31;64.57;;;1.13;;
29026;SDS011;16120;48.608;9.092;2022-07-05T10:20:29;64.77;;;1.20;;
29026;SDS011;16120;48.608;9.092;2022-07-05T10:24:30;66.00;;;1.20;;
29026;SDS011;16120;48.608;9.092;2022-07-05T10:28:26;64.13;;;1.10;;
29026;SDS011;16120;48.608;9.092;2022-07-05T10:32:22;64.47;;;1.20;;
29026;SDS011;16120;48.608;9.092;2022-07-05T10:36:19;64.53;;;1.20;;
29026;SDS011;16120;48.608;9.092;2022-07-05T10:40:15;64.77;;;1.17;;
29026;SDS011;16120;48.608;9.092;2022-07-05T10:44:10;64.27;;;1.10;;
29026;SDS011;16120;48.608;9.092;2022-07-05T10:48:15;63.97;;;1.10;;
29026;SDS011;16120;48.608;9.092;2022-07-05T10:56:22;64.47;;;1.20;;
29026;SDS011;16120;48.608;9.092;2022-07-05T11:00:18;64.37;;;1.20;;
29026;SDS011;16120;48.608;9.092;2022-07-05T11:08:29;64.37;;;1.10;;
29026;SDS011;16120;48.608;9.092;2022-07-05T11:12:29;64.97;;;1.10;;
29026;SDS011;16120;48.608;9.092;2022-07-05T11:16:30;64.53;;;1.23;;
29026;SDS011;16120;48.608;9.092;2022-07-05T11:20:26;64.90;;;1.20;;
29026;SDS011;16120;48.608;9.092;2022-07-05T11:24:23;64.97;;;1.20;;
29026;SDS011;16120;48.608;9.092;2022-07-05T11:28:20;75.10;;;10.03;;
29026;SDS011;16120;48.608;9.092;2022-07-05T11:32:16;66.37;;;1.40;;
29026;SDS011;16120;48.608;9.092;2022-07-05T11:36:19;67.07;;;1.40;;
29026;SDS011;16120;48.608;9.092;2022-07-05T11:40:27;64.80;;;1.30;;
29026;SDS011;16120;48.608;9.092;2022-07-05T11:44:24;65.97;;;1.20;;
29026;SDS011;16120;48.608;9.092;2022-07-05T11:48:19;64.27;;;1.10;;
29026;SDS011;16120;48.608;9.092;2022-07-05T11:52:15;64.50;;;1.20;;
29026;SDS011;16120;48.608;9.092;2022-07-05T11:56:10;64.07;;;1.10;;
29026;SDS011;16120;48.608;9.092;2022-07-05T12:00:08;64.53;;;1.10;;
29026;SDS011;16120;48.608;9.092;2022-07-05T12:04:03;65.10;;;1.20;;
29026;SDS011;16120;48.608;9.092;2022-07-05T12:07:58;64.47;;;1.20;;
29026;SDS011;16120;48.608;9.092;2022-07-05T12:11:54;64.63;;;1.37;;
29026;SDS011;16120;48.608;9.092;2022-07-05T12:15:53;64.70;;;2.07;;
29026;SDS011;16120;48.608;9.092;2022-07-05T12:19:53;64.07;;;1.10;;
29026;SDS011;16120;48.608;9.092;2022-07-05T12:23:49;65.80;;;1.30;;
29026;SDS011;16120;48.608;9.092;2022-07-05T12:27:45;64.13;;;1.60;;
29026;SDS011;16120;48.608;9.092;2022-07-05T12:31:51;65.90;;;1.30;;
29026;SDS011;16120;48.608;9.092;2022-07-05T12:35:52;65.57;;;1.17;;
29026;SDS011;16120;48.608;9.092;2022-07-05T12:39:48;66.50;;;1.30;;
29026;SDS011;16120;48.608;9.092;2022-07-05T12:43:50;68.57;;;1.43;;
29026;SDS011;16120;48.608;9.092;2022-07-05T12:47:50;66.60;;;1.20;;
29026;SDS011;16120;48.608;9.092;2022-07-05T12:51:46;65.57;;;1.30;;
29026;SDS011;16120;48.608;9.092;2022-07-05T12:55:41;65.77;;;1.27;;
29026;SDS011;16120;48.608;9.092;2022-07-05T12:59:36;66.20;;;1.30;;
29026;SDS011;16120;48.608;9.092;2022-07-05T13:07:43;65.93;;;1.20;;
29026;SDS011;16120;48.608;9.092;2022-07-05T13:11:38;65.87;;;1.20;;
29026;SDS011;16120;48.608;9.092;2022-07-05T13:15:34;65.90;;;1.33;;
29026;SDS011;16120;48.608;9.092;2022-07-05T13:19:30;67.30;;;1.40;;
29026;SDS011;16120;48.608;9.092;2022-07-05T13:23:27;65.87;;;1.37;;
29026;SDS011;16120;48.608;9.092;2022-07-05T13:27:22;65.30;;;1.10;;
29026;SDS011;16120;48.608;9.092;2022-07-05T13:31:17;65.20;;;1.30;;
29026;SDS011;16120;48.608;9.092;2022-07-05T13:35:13;68.97;;;1.20;;
29026;SDS011;16120;48.608;9.092;2022-07-05T13:39:09;65.37;;;1.30;;
29026;SDS011;16120;48.608;9.092;2022-07-05T13:43:04;66.07;;;1.23;;
29026;SDS011;16120;48.608;9.092;2022-07-05T13:46:59;66.30;;;1.33;;
29026;SDS011;16120;48.608;9.092;2022-07-05T13:50:55;65.67;;;1.17;;
29026;SDS011;16120;48.608;9.092;2022-07-05T13:54:51;65.97;;;1.20;;
29026;SDS011;16120;48.608;9.092;2022-07-05T13:58:46;65.37;;;1.20;;
29026;SDS011;16120;48.608;9.092;2022-07-05T14:02:43;65.43;;;1.20;;
29026;SDS011;16120;48.608;9.092;2022-07-05T14:06:39;65.60;;;1.20;;
29026;SDS011;16120;48.608;9.092;2022-07-05T14:10:35;66.90;;;1.30;;
29026;SDS011;16120;48.608;9.092;2022-07-05T14:14:30;66.70;;;1.23;;
29026;SDS011;16120;48.608;9.092;2022-07-05T14:18:26;70.93;;;7.90;;
29026;SDS011;16120;48.608;9.092;2022-07-05T14:22:21;67.27;;;1.30;;
29026;SDS011;16120;48.608;9.092;2022-07-05T14:26:17;65.37;;;1.30;;
29026;SDS011;16120;48.608;9.092;2022-07-05T14:30:13;63.60;;;1.20;;
29026;SDS011;16120;48.608;9.092;2022-07-05T14:34:08;63.80;;;1.20;;
29026;SDS011;16120;48.608;9.092;2022-07-05T14:38:03;63.53;;;1.10;;
29026;SDS011;16120;48.608;9.092;2022-07-05T14:42:00;63.17;;;1.17;;
29026;SDS011;16120;48.608;9.092;2022-07-05T14:45:55;63.27;;;1.03;;
29026;SDS011;16120;48.608;9.092;2022-07-05T14:49:50;63.58;;;1.10;;
29026;SDS011;16120;48.608;9.092;2022-07-05T14:53:45;66.87;;;2.10;;
29026;SDS011;16120;48.608;9.092;2022-07-05T14:57:42;66.40;;;1.30;;
29026;SDS011;16120;48.608;9.092;2022-07-05T15:01:37;65.17;;;1.20;;
29026;SDS011;16120;48.608;9.092;2022-07-05T15:05:32;65.00;;;1.37;;
29026;SDS011;16120;48.608;9.092;2022-07-05T15:09:27;66.67;;;1.70;;
29026;SDS011;16120;48.608;9.092;2022-07-05T15:13:24;65.53;;;1.30;;
29026;SDS011;16120;48.608;9.092;2022-07-05T15:17:19;66.70;;;1.40;;
29026;SDS011;16120;48.608;9.092;2022-07-05T15:21:14;65.17;;;1.20;;
29026;SDS011;16120;48.608;9.092;2022-07-05T15:25:10;65.57;;;1.20;;
29026;SDS011;16120;48.608;9.092;2022-07-05T15:29:07;67.33;;;1.30;;
29026;SDS011;16120;48.608;9.092;2022-07-05T15:33:03;65.90;;;1.33;;
29026;SDS011;16120;48.608;9.092;2022-07-05T15:36:58;67.30;;;1.40;;
29026;SDS011;16120;48.608;9.092;2022-07-05T15:40:53;65.47;;;1.10;;
29026;SDS011;16120;48.608;9.092;2022-07-05T15:44:50;69.80;;;1.27;;
29026;SDS011;16120;48.608;9.092;2022-07-05T15:48:45;65.87;;;1.20;;
29026;SDS011;16120;48.608;9.092;2022-07-05T15:52:40;65.90;;;1.23;;
29026;SDS011;16120;48.608;9.092;2022-07-05T15:56:35;66.47;;;1.50;;
29026;SDS011;16120;48.608;9.092;2022-07-05T16:00:32;65.80;;;1.43;;
29026;SDS011;16120;48.608;9.092;2022-07-05T16:04:27;66.07;;;1.20;;
29026;SDS011;16120;48.608;9.092;2022-07-05T16:08:23;65.47;;;1.23;;
29026;SDS011;16120;48.608;9.092;2022-07-05T16:12:18;66.00;;;1.23;;
29026;SDS011;16120;48.608;9.092;2022-07-05T16:16:14;71.93;;;11.40;;
29026;SDS011;16120;48.608;9.092;2022-07-05T16:20:10;64.97;;;1.30;;
29026;SDS011;16120;48.608;9.092;2022-07-05T16:24:05;64.57;;;1.20;;
29026;SDS011;16120;48.608;9.092;2022-07-05T16:28:01;64.33;;;1.20;;
29026;SDS011;16120;48.608;9.092;2022-07-05T16:31:57;64.80;;;1.40;;
29026;SDS011;16120;48.608;9.092;2022-07-05T16:35:52;63.77;;;1.10;;
29026;SDS011;16120;48.608;9.092;2022-07-05T16:39:48;65.40;;;3.23;;
29026;SDS011;16120;48.608;9.092;2022-07-05T16:43:43;64.33;;;1.20;;
29026;SDS011;16120;48.608;9.092;2022-07-05T16:47:40;63.87;;;1.10;;
29026;SDS011;16120;48.608;9.092;2022-07-05T16:51:35;63.20;;;1.20;;
29026;SDS011;16120;48.608;9.092;2022-07-05T16:55:31;66.67;;;1.30;;
29026;SDS011;16120;48.608;9.092;2022-07-05T16:59:26;63.87;;;1.20;;
29026;SDS011;16120;48.608;9.092;2022-07-05T17:03:23;63.57;;;1.10;;
29026;SDS011;16120;48.608;9.092;2022-07-05T17:07:18;64.37;;;1.20;;
29026;SDS011;16120;48.608;9.092;2022-07-05T17:11:14;64.03;;;1.10;;
29026;SDS011;16120;48.608;9.092;2022-07-05T17:15:10;64.07;;;1.20;;
29026;SDS011;16120;48.608;9.092;2022-07-05T17:19:06;64.40;;;1.10;;
29026;SDS011;16120;48.608;9.092;2022-07-05T17:23:02;64.17;;;1.20;;
29026;SDS011;16120;48.608;9.092;2022-07-05T17:26:57;63.87;;;1.20;;
29026;SDS011;16120;48.608;9.092;2022-07-05T17:30:52;64.40;;;1.10;;
29026;SDS011;16120;48.608;9.092;2022-07-05T17:34:49;63.80;;;1.10;;
29026;SDS011;16120;48.608;9.092;2022-07-05T17:38:45;64.20;;;1.20;;
29026;SDS011;16120;48.608;9.092;2022-07-05T17:42:40;63.87;;;1.10;;
29026;SDS011;16120;48.608;9.092;2022-07-05T17:46:35;67.17;;;1.10;;
29026;SDS011;16120;48.608;9.092;2022-07-05T17:50:32;64.27;;;1.10;;
29026;SDS011;16120;48.608;9.092;2022-07-05T17:54:27;64.17;;;1.10;;
29026;SDS011;16120;48.608;9.092;2022-07-05T17:58:22;64.00;;;1.20;;
29026;SDS011;16120;48.608;9.092;2022-07-05T18:02:17;65.37;;;1.27;;
29026;SDS011;16120;48.608;9.092;2022-07-05T18:06:14;64.80;;;1.10;;
29026;SDS011;16120;48.608;9.092;2022-07-05T18:10:09;64.37;;;1.20;;
29026;SDS011;16120;48.608;9.092;2022-07-05T18:14:05;64.07;;;1.10;;
29026;SDS011;16120;48.608;9.092;2022-07-05T18:18:02;64.40;;;1.10;;
29026;SDS011;16120;48.608;9.092;2022-07-05T18:21:58;63.67;;;1.10;;
29026;SDS011;16120;48.608;9.092;2022-07-05T18:25:54;64.43;;;1.10;;
29026;SDS011;16120;48.608;9.092;2022-07-05T18:29:49;65.37;;;1.30;;
29026;SDS011;16120;48.608;9.092;2022-07-05T18:33:44;64.53;;;1.30;;
29026;SDS011;16120;48.608;9.092;2022-07-05T18:37:41;64.07;;;1.20;;
29026;SDS011;16120;48.608;9.092;2022-07-05T18:41:36;64.00;;;1.20;;
29026;SDS011;16120;48.608;9.092;2022-07-05T18:45:31;63.87;;;1.20;;
29026;SDS011;16120;48.608;9.092;2022-07-05T18:49:26;64.37;;;1.20;;
29026;SDS011;16120;48.608;9.092;2022-07-05T18:53:23;65.70;;;1.20;;
29026;SDS011;16120;48.608;9.092;2022-07-05T18:57:18;64.70;;;1.33;;
29026;SDS011;16120;48.608;9.092;2022-07-05T19:01:13;64.63;;;1.20;;
29026;SDS011;16120;48.608;9.092;2022-07-05T19:05:08;64.57;;;1.10;;
29026;SDS011;16120;48.608;9.092;2022-07-05T19:09:05;64.97;;;1.30;;
29026;SDS011;16120;48.608;9.092;2022-07-05T19:13:00;66.20;;;1.20;;
29026;SDS011;16120;48.608;9.092;2022-07-05T19:16:56;64.87;;;1.20;;
29026;SDS011;16120;48.608;9.092;2022-07-05T19:20:51;65.07;;;1.20;;
29026;SDS011;16120;48.608;9.092;2022-07-05T19:24:47;65.07;;;1.20;;
29026;SDS011;16120;48.608;9.092;2022-07-05T19:28:43;65.80;;;1.30;;
29026;SDS011;16120;48.608;9.092;2022-07-05T19:32:38;64.77;;;1.30;;
29026;SDS011;16120;48.608;9.092;2022-07-05T19:36:33;65.43;;;1.30;;
29026;SDS011;16120;48.608;9.092;2022-07-05T19:40:30;67.80;;;1.60;;
29026;SDS011;16120;48.608;9.092;2022-07-05T19:44:25;65.37;;;1.30;;
29026;SDS011;16120;48.608;9.092;2022-07-05T19:48:20;65.87;;;1.30;;
29026;SDS011;16120;48.608;9.092;2022-07-05T19:52:15;65.57;;;1.30;;
29026;SDS011;16120;48.608;9.092;2022-07-05T19:56:12;66.70;;;1.40;;
29026;SDS011;16120;48.608;9.092;2022-07-05T20:00:08;66.27;;;1.30;;
29026;SDS011;16120;48.608;9.092;2022-07-05T20:04:04;65.80;;;1.53;;
29026;SDS011;16120;48.608;9.092;2022-07-05T20:07:59;67.40;;;1.50;;
29026;SDS011;16120;48.608;9.092;2022-07-05T20:11:56;66.30;;;1.40;;
29026;SDS011;16120;48.608;9.092;2022-07-05T20:15:51;66.30;;;1.60;;
29026;SDS011;16120;48.608;9.092;2022-07-05T20:19:46;67.33;;;1.57;;
29026;SDS011;16120;48.608;9.092;2022-07-05T20:23:41;66.50;;;1.50;;
29026;SDS011;16120;48.608;9.092;2022-07-05T20:27:38;66.57;;;1.50;;
29026;SDS011;16120;48.608;9.092;2022-07-05T20:31:33;67.47;;;1.67;;
29026;SDS011;16120;48.608;9.092;2022-07-05T20:35:29;66.80;;;1.53;;
29026;SDS011;16120;48.608;9.092;2022-07-05T20:39:24;68.30;;;1.57;;
29026;SDS011;16120;48.608;9.092;2022-07-05T20:43:20;66.77;;;1.60;;
29026;SDS011;16120;48.608;9.092;2022-07-05T20:47:16;67.13;;;1.60;;
29026;SDS011;16120;48.608;9.092;2022-07-05T20:51:11;67.17;;;1.60;;
29026;SDS011;16120;48.608;9.092;2022-07-05T20:55:06;67.70;;;1.70;;
29026;SDS011;16120;48.608;9.092;2022-07-05T20:59:03;67.87;;;1.70;;
29026;SDS011;16120;48.608;9.092;2022-07-05T21:02:58;67.40;;;1.60;;
29026;SDS011;16120;48.608;9.092;2022-07-05T21:06:53;67.57;;;1.67;;
29026;SDS011;16120;48.608;9.092;2022-07-05T21:10:49;68.07;;;1.63;;
29026;SDS011;16120;48.608;9.092;2022-07-05T21:14:45;68.00;;;1.70;;
29026;SDS011;16120;48.608;9.092;2022-07-05T21:18:40;67.80;;;1.67;;
29026;SDS011;16120;48.608;9.092;2022-07-05T21:22:36;67.80;;;1.55;;
29026;SDS011;16120;48.608;9.092;2022-07-05T21:26:31;68.07;;;1.70;;
29026;SDS011;16120;48.608;9.092;2022-07-05T21:30:28;67.85;;;1.70;;
29026;SDS011;16120;48.608;9.092;2022-07-05T21:34:23;69.80;;;1.80;;
29026;SDS011;16120;48.608;9.092;2022-07-05T21:38:18;68.47;;;1.80;;
29026;SDS011;16120;48.608;9.092;2022-07-05T21:42:13;68.35;;;1.77;;
29026;SDS011;16120;48.608;9.092;2022-07-05T21:46:10;68.70;;;1.73;;
29026;SDS011;16120;48.608;9.092;2022-07-05T21:50:05;68.47;;;1.87;;
29026;SDS011;16120;48.608;9.092;2022-07-05T21:54:01;68.03;;;1.90;;
29026;SDS011;16120;48.608;9.092;2022-07-05T21:57:56;69.10;;;2.10;;
29026;SDS011;16120;48.608;9.092;2022-07-05T22:01:53;68.60;;;1.90;;
29026;SDS011;16120;48.608;9.092;2022-07-05T22:05:48;67.80;;;1.90;;
29026;SDS011;16120;48.608;9.092;2022-07-05T22:09:43;68.70;;;2.13;;
29026;SDS011;16120;48.608;9.092;2022-07-05T22:13:38;68.33;;;1.90;;
29026;SDS011;16120;48.608;9.092;2022-07-05T22:17:35;68.67;;;2.00;;
29026;SDS011;16120;48.608;9.092;2022-07-05T22:21:30;68.80;;;2.10;;
29026;SDS011;16120;48.608;9.092;2022-07-05T22:25:25;68.47;;;2.10;;
29026;SDS011;16120;48.608;9.092;2022-07-05T22:29:21;69.10;;;1.90;;
29026;SDS011;16120;48.608;9.092;2022-07-05T22:33:17;68.90;;;2.00;;
29026;SDS011;16120;48.608;9.092;2022-07-05T22:37:13;69.37;;;2.20;;
29026;SDS011;16120;48.608;9.092;2022-07-05T22:41:08;68.65;;;2.10;;
29026;SDS011;16120;48.608;9.092;2022-07-05T22:45:03;69.80;;;2.10;;
29026;SDS011;16120;48.608;9.092;2022-07-05T22:49:00;68.90;;;2.00;;
29026;SDS011;16120;48.608;9.092;2022-07-05T22:52:55;69.67;;;2.10;;
29026;SDS011;16120;48.608;9.092;2022-07-05T22:56:51;69.37;;;2.10;;
29026;SDS011;16120;48.608;9.092;2022-07-05T23:00:46;69.30;;;2.10;;
29026;SDS011;16120;48.608;9.092;2022-07-05T23:04:42;69.80;;;2.30;;
29026;SDS011;16120;48.608;9.092;2022-07-05T23:08:38;68.17;;;2.00;;
29026;SDS011;16120;48.608;9.092;2022-07-05T23:12:33;69.17;;;2.10;;
29026;SDS011;16120;48.608;9.092;2022-07-05T23:16:28;68.67;;;2.00;;
29026;SDS011;16120;48.608;9.092;2022-07-05T23:20:25;70.57;;;2.20;;
29026;SDS011;16120;48.608;9.092;2022-07-05T23:24:20;69.33;;;2.23;;
29026;SDS011;16120;48.608;9.092;2022-07-05T23:28:15;69.57;;;2.37;;
29026;SDS011;16120;48.608;9.092;2022-07-05T23:32:10;69.20;;;2.10;;